Terminal Aerodrome Forecast
Issued by NWS Green Bay, WI

Home | Current Version | Previous Version | Text Only | Print | Product List | Glossary Off
Versions: 1 2 3 4 5 6 7 8 9 10 11 12 13 14 15 16 17 18 19 20

000
FTUS43 KGRB 232118 AAB
TAFGRB
TAF AMD
KGRB 232118Z 2321/2418 04012KT P6SM VCSH BKN015 OVC026
      TEMPO 2321/2401 4SM -SHRA OVC012
     FM240200 03010G16KT P6SM -SHRA OVC015
     FM240600 03013G19KT P6SM -SHRA OVC009
     FM241600 04015G21KT P6SM -SHRA OVC013=

USA.gov is the U.S. government's official web portal to all federal, state and local government web resources and services.